Time;durP1;ratioP1;P1;durP2;ratioP2;P2;SDS_P1;SDS_P2;PMS_P1;PMS_P2;Temp;Humidity;BMP_temperature;BMP_pressure;BME280_temperature;BME280_humidity;BME280_pressure;Samples;Min_cycle;Max_cycle;Signal;HPM_P1;HPM_P2
2023/08/06 06:00:48;;;;;;;23.60;15.70;;;;;;;22.30;83.96;97366.60;111663;1233;107085;-89
2023/08/06 06:03:20;;;;;;;25.20;16.90;;;;;;;22.35;84.21;97361.24;110031;1237;96438;-90
2023/08/06 06:05:49;;;;;;;24.10;15.70;;;;;;;22.40;83.99;97352.96;110137;1236;95415;-91
2023/08/06 06:08:21;;;;;;;23.90;15.50;;;;;;;22.43;84.09;97354.84;109983;1231;110228;-90
2023/08/06 06:10:48;;;;;;;24.60;16.30;;;;;;;22.46;84.10;97349.45;109896;1234;96585;-91
2023/08/06 06:13:16;;;;;;;23.70;16.00;;;;;;;22.49;84.02;97347.99;109873;1234;96375;-91
2023/08/06 06:15:43;;;;;;;26.50;16.80;;;;;;;22.45;83.73;97344.50;110020;1231;96478;-90
2023/08/06 06:18:13;;;;;;;26.40;17.20;;;;;;;22.44;84.10;97344.91;110218;1231;96654;-91
2023/08/06 06:20:47;;;;;;;25.10;16.00;;;;;;;22.51;84.11;97345.34;110705;1230;110198;-91
2023/08/06 07:03:25;;;;;;;15.50;8.80;;;;;;;24.16;83.23;97326.30;110172;1232;96602;-91
2023/08/06 07:05:59;;;;;;;15.10;8.30;;;;;;;24.20;82.99;97325.39;110015;1231;109830;-92
2023/08/06 07:11:45;;;;;;;16.10;7.80;;;;;;;24.27;82.77;97327.27;110067;1237;107696;-93
2023/08/06 07:14:14;;;;;;;16.50;8.90;;;;;;;24.29;82.59;97320.71;110300;1231;96585;-93
2023/08/06 07:17:26;;;;;;;16.60;9.00;;;;;;;24.33;82.71;97321.83;109959;1231;96496;-91
2023/08/06 07:19:54;;;;;;;17.70;10.00;;;;;;;24.36;82.76;97322.01;109768;1238;110144;-91
2023/08/06 07:22:23;;;;;;;15.50;8.90;;;;;;;24.42;82.70;97314.27;109587;1231;96557;-90
2023/08/06 07:24:51;;;;;;;16.30;8.10;;;;;;;24.46;82.64;97314.17;109509;1238;107601;-91
2023/08/06 07:27:18;;;;;;;15.10;8.00;;;;;;;24.49;82.59;97313.80;109903;1236;96583;-91
2023/08/06 07:29:45;;;;;;;18.10;8.20;;;;;;;24.54;82.64;97311.86;109836;1236;96576;-91
2023/08/06 07:32:13;;;;;;;15.00;8.60;;;;;;;24.56;82.17;97310.11;109825;1231;96598;-91
2023/08/06 07:34:41;;;;;;;14.40;7.60;;;;;;;24.61;82.59;97317.30;110090;1231;96324;-90
2023/08/06 07:37:30;;;;;;;14.20;7.70;;;;;;;24.68;82.33;97316.88;109957;1231;107568;-90
2023/08/06 07:39:58;;;;;;;16.90;8.60;;;;;;;24.74;82.10;97315.34;110221;1232;96550;-90
2023/08/06 07:42:47;;;;;;;14.60;8.50;;;;;;;24.86;82.55;97316.82;110171;1232;96477;-92
2023/08/06 07:45:15;;;;;;;14.20;7.90;;;;;;;24.91;81.81;97307.45;110297;1233;108375;-91
2023/08/06 07:47:42;;;;;;;15.20;8.70;;;;;;;24.91;81.69;97313.91;110048;1231;96486;-91
2023/08/06 07:50:10;;;;;;;15.50;8.20;;;;;;;24.93;81.71;97312.70;110469;1236;107466;-90
2023/08/06 09:34:27;;;;;;;9.20;5.10;;;;;;;25.87;74.89;97330.62;109091;1245;95424;-93
2023/08/06 09:37:42;;;;;;;8.50;4.40;;;;;;;25.78;74.47;97329.65;109426;1244;108876;-91
2023/08/06 09:49:45;;;;;;;6.60;3.50;;;;;;;25.68;73.76;97330.44;111182;1240;93170;-93
2023/08/06 10:32:51;;;;;;;5.20;2.60;;;;;;;25.44;71.11;97304.41;110827;1236;93937;-90
2023/08/06 10:36:26;;;;;;;3.40;2.50;;;;;;;25.33;71.02;97301.53;109789;1238;94957;-90
2023/08/06 11:07:14;;;;;;;3.20;2.20;;;;;;;25.19;70.22;97280.13;111842;1232;93021;-92
2023/08/06 11:11:06;;;;;;;2.30;2.10;;;;;;;25.20;70.04;97279.16;109814;1240;109711;-91
2023/08/06 11:19:54;;;;;;;3.00;2.50;;;;;;;25.11;69.31;97288.60;111794;1235;93240;31
2023/08/06 11:38:11;;;;;;;2.60;2.30;;;;;;;25.25;69.30;97285.92;110817;1232;94202;-92
2023/08/06 11:41:27;;;;;;;3.20;2.30;;;;;;;25.34;69.28;97281.45;109819;1239;108406;-93
2023/08/06 11:50:24;;;;;;;2.60;2.10;;;;;;;25.44;68.56;97281.94;109151;1239;95160;-91
2023/08/06 11:52:57;;;;;;;2.10;1.90;;;;;;;25.43;68.52;97279.48;109452;1237;95150;-92
2023/08/06 11:56:01;;;;;;;3.60;1.80;;;;;;;25.40;68.22;97277.15;109472;1236;108478;-92
2023/08/06 12:16:07;;;;;;;3.00;1.70;;;;;;;25.28;67.62;97270.48;111766;1233;107179;-92
2023/08/06 12:18:53;;;;;;;2.50;1.70;;;;;;;25.34;67.74;97273.73;109756;1238;95127;-92
2023/08/06 12:21:58;;;;;;;2.70;1.50;;;;;;;25.38;67.11;97275.11;109952;1232;95165;-93
2023/08/06 12:25:06;;;;;;;1.50;1.30;;;;;;;25.43;67.45;97277.09;110245;1231;106906;-94
2023/08/06 12:27:53;;;;;;;2.20;1.70;;;;;;;25.48;67.05;97268.44;110091;1237;96111;-93
2023/08/06 12:30:54;;;;;;;1.70;1.60;;;;;;;25.51;66.99;97280.14;110281;1236;107696;-91
2023/08/06 12:42:08;;;;;;;1.80;1.60;;;;;;;25.63;66.70;97298.25;109506;1237;95262;-91
2023/08/06 12:45:24;;;;;;;4.70;1.80;;;;;;;25.64;66.47;97298.92;109677;1237;107827;-92
2023/08/06 13:06:14;;;;;;;1.70;1.40;;;;;;;25.42;65.57;97305.74;109442;1245;96686;-91
2023/08/06 13:08:42;;;;;;;3.30;1.70;;;;;;;25.44;65.62;97310.73;109160;1237;109306;-90
2023/08/06 13:11:29;;;;;;;3.80;2.00;;;;;;;25.47;66.01;97312.92;109296;1235;96516;-92
2023/08/06 13:14:13;;;;;;;5.20;1.60;;;;;;;25.52;65.54;97316.73;109272;1237;107624;-92
2023/08/06 13:16:46;;;;;;;;;;;;;;;25.55;65.53;97323.52;109614;1233;97192;-93
2023/08/06 14:46:32;;;;;;;1.90;1.20;;;;;;;24.66;62.88;97336.53;110335;1232;96657;-91
2023/08/06 16:02:42;;;;;;;0.90;0.40;;;;;;;23.40;63.37;97397.20;112101;1233;95946;31
2023/08/06 16:35:22;;;;;;;1.10;0.40;;;;;;;20.74;62.63;97489.28;112099;1230;94567;-91
2023/08/06 16:38:07;;;;;;;;;;;;;;;;;;;;;
2023/08/06 18:19:36;;;;;;;4.80;2.20;;;;;;;18.18;66.34;97629.26;112137;1229;106239;-92
